KREO/REO METAR and TAF weather

Enter ICAO airport designator
Station Type Date Time Source
KREO METAR 2020/01/17 13:52 UTC NOAA

KREO 171352Z AUTO 23004KT M03/M06 A3000 RMK AO1 SLP183 T10331056


Station Type Date Time Source
KREO Decoded METAR 2020/01/17 13:52 UTC NOAA

ROME, OR, United States (KREO) 42-35N 117-52W 1235M
Jan 17, 2020 - 08:52 AM EST / 2020.01.17 1352 UTC
Wind: from the SW (230 degrees) at 5 MPH (4 KT):0
Temperature: 26.1 F (-3.3 C)
Windchill: 19 F (-7 C):1
Dew Point: 21.9 F (-5.6 C)
Relative Humidity: 84%
Pressure (altimeter): 30 in. Hg (1015 hPa)
ob: KREO 171352Z AUTO 23004KT M03/M06 A3000 RMK AO1 SLP183 T10331056
cycle: 14

Station Type Date Time Source
KREO TAF UTC NOAA

Error!

Example: see airport list